Impacts METAR Board
IDs:

KCLT - Charlotte/Douglas In, NC, US

Updated at: 1100 UTC 09 Jul 2020
Potential Impact None Slight Moderate High
Time 08/23Z 09/00Z 09/01Z 09/02Z 09/03Z 09/04Z 09/05Z 09/06Z 09/07Z 09/08Z 09/09Z 09/10Z 09/11Z
Temp88 82 78 78 76 76 75 74 73 74 74 74 74
Dewpt68 67 72 71 70 70 70 70 69 69 69 69 69
Altim29.87 29.90 29.91 29.93 29.93 29.94 29.94 29.93 29.90 29.90 29.90 29.93 29.94
VIS10 10 10 10 10 10 10 10 10 10 10 10 10
CIG250 50 250 250 -- -- 80 80 -- 17 8 9 12
CoverBKNBKNBKNBKNSCTSCTBKNOVCSCTBKNOVCOVCOVC
FltCatVFRVFRVFRVFRVFRVFRVFRVFRVFRMVFRIFRIFRMVFR
WX---RA----------------------
WDir208060504030103502010104010
WSpd9 15 6 6 8 4 5 3 8 7 5 8 7
WGst-- 25 -- -- -- -- -- -- -- -- -- -- --
Raw hourly METARs
KCLT 082252Z 02009KT 10SM FEW040TCU SCT090 SCT120 BKN250 31/20 A2987 RMK AO2 SLP105 TCU E AND SE AND DSNT SE AND NW T03110200 $
KCLT 082352Z 08015G25KT 10SM -RA SCT038TCU BKN050 BKN120 28/19 A2990 RMK AO2 RAB49 PRESRR SLP116 TCU OHD AND S AND DSNT S P0000 60000 T02780194 10317 20278 53004 $
KCLT 090052Z 06006KT 10SM FEW038 SCT050 SCT110 BKN250 26/22 A2991 RMK AO2 LTG DSNT S AND SW RAE27 SLP117 CB DSNT S TCU DSNT N AND NW P0003 T02560222 $
KCLT 090152Z 05006KT 10SM FEW046 SCT070 SCT110 BKN250 26/22 A2993 RMK AO2 SLP125 T02560217 $
KCLT 090252Z 04008KT 10SM FEW065 FEW120 SCT250 24/21 A2993 RMK AO2 SLP126 60003 T02440211 51010 $
KCLT 090352Z 03004KT 10SM FEW060 SCT250 24/21 A2994 RMK AO2 SLP129 T02440211 $
KCLT 090452Z 01005KT 10SM BKN080 24/21 A2994 RMK AO2 SLP128 T02390211 403170222 $
KCLT 090552Z 35003KT 10SM BKN080 OVC090 23/21 A2993 RMK AO2 SLP124 60003 T02330211 10272 20233 58001 $
KCLT 090652Z 02008KT 10SM SCT021 SCT080 23/21 A2990 RMK AO2 SLP116 T02280206 $
KCLT 090752Z 01007KT 10SM BKN017 23/21 A2990 RMK AO2 SLP115 T02330206 $
KCLT 090904Z 01005KT 10SM OVC008 23/21 A2990 RMK AO2 T02330206 $
KCLT 090952Z 04008KT 10SM OVC009 23/21 A2993 RMK AO2 SLP124 T02330206 $
KCLT 091052Z 01007KT 10SM OVC012 23/21 A2994 RMK AO2 SLP129 T02330206 $



Page loaded:  11:26 UTC  |   04:26 AM Pacific  |   05:26 AM Mountain  |   06:26 AM Central  |   07:26 AM Eastern

 

ADVISORIES

FORECASTS

FORECASTS

OBSERVATIONS

USER TOOLS

ABOUT US